createdAt,value
2023-01-15T00:00:21.020Z,41.90
2023-01-15T00:02:51.747Z,41.81
2023-01-15T00:05:22.461Z,41.71
2023-01-15T00:07:54.045Z,41.77
2023-01-15T00:10:24.751Z,41.72
2023-01-15T00:12:55.420Z,41.68
2023-01-15T00:15:26.224Z,41.69
2023-01-15T00:17:57.146Z,41.81
2023-01-15T00:20:27.766Z,41.78
2023-01-15T00:22:58.461Z,41.64
2023-01-15T00:25:47.057Z,41.84
2023-01-15T00:28:17.723Z,41.65
2023-01-15T00:30:48.352Z,41.80
2023-01-15T00:33:19.014Z,41.66
2023-01-15T00:35:50.033Z,41.55
2023-01-15T00:38:20.774Z,41.75
2023-01-15T00:40:53.070Z,41.67
2023-01-15T00:43:23.892Z,41.86
2023-01-15T00:45:54.523Z,41.76
2023-01-15T00:48:25.201Z,41.76
2023-01-15T00:50:55.895Z,42.05
2023-01-15T00:53:27.273Z,41.92
2023-01-15T00:55:58.266Z,41.82
2023-01-15T00:58:28.979Z,41.94
2023-01-15T01:01:01.026Z,41.76
2023-01-15T01:03:31.911Z,41.94
2023-01-15T01:06:05.442Z,42.07
2023-01-15T01:08:36.133Z,41.94
2023-01-15T01:11:09.633Z,41.95
2023-01-15T01:13:41.387Z,42.15
2023-01-15T01:16:25.272Z,42.21
2023-01-15T01:18:56.175Z,42.25
2023-01-15T01:21:27.856Z,42.08
2023-01-15T01:24:00.650Z,42.30
2023-01-15T01:26:32.405Z,42.13
2023-01-15T01:29:03.162Z,42.21
2023-01-15T01:31:34.423Z,42.13
2023-01-15T01:34:05.235Z,42.30
2023-01-15T01:36:38.736Z,42.18
2023-01-15T01:39:13.324Z,42.26
2023-01-15T01:41:44.971Z,42.12
2023-01-15T01:44:46.217Z,42.54
2023-01-15T01:47:22.893Z,42.47
2023-01-15T01:49:57.867Z,42.49
2023-01-15T01:52:32.432Z,42.44
2023-01-15T01:55:05.555Z,42.74
2023-01-15T01:57:37.049Z,42.76
2023-01-15T02:00:14.140Z,42.90
2023-01-15T02:02:48.119Z,42.67
2023-01-15T02:05:24.869Z,42.72
2023-01-15T02:07:55.847Z,42.85
2023-01-15T02:10:26.963Z,42.85
2023-01-15T02:13:05.373Z,42.98
2023-01-15T02:15:39.974Z,42.91
2023-01-15T02:18:18.639Z,42.75
2023-01-15T02:20:52.798Z,42.83
2023-01-15T02:23:56.900Z,42.74
2023-01-15T02:26:29.717Z,42.93
2023-01-15T02:29:02.337Z,42.88
2023-01-15T02:31:37.150Z,42.96
2023-01-15T02:34:11.289Z,42.83
2023-01-15T02:36:48.284Z,42.85
2023-01-15T02:39:21.643Z,42.97
2023-01-15T02:41:55.220Z,42.90
2023-01-15T02:44:28.566Z,42.88
2023-01-15T02:47:00.944Z,42.97
2023-01-15T02:49:32.990Z,42.91
2023-01-15T02:52:07.867Z,42.96
2023-01-15T02:54:42.635Z,43.25
2023-01-15T02:57:15.382Z,43.15
2023-01-15T02:59:49.855Z,43.02
2023-01-15T03:02:24.874Z,42.91
2023-01-15T03:05:01.971Z,42.98
2023-01-15T03:07:37.615Z,43.02
2023-01-15T03:10:09.921Z,42.88
2023-01-15T03:13:00.514Z,42.90
2023-01-15T03:16:01.203Z,42.96
2023-01-15T03:18:37.684Z,42.65
2023-01-15T03:21:12.977Z,42.62
2023-01-15T03:23:51.065Z,42.51
2023-01-15T03:26:22.828Z,42.27
2023-01-15T03:28:54.780Z,42.20
2023-01-15T03:31:25.511Z,42.02
2023-01-15T03:33:56.840Z,42.03
2023-01-15T03:36:27.525Z,42.12
2023-01-15T03:38:59.672Z,41.97
2023-01-15T03:41:39.379Z,41.95
2023-01-15T03:44:19.141Z,41.91
2023-01-15T03:46:56.315Z,41.98
2023-01-15T03:49:39.854Z,41.89
2023-01-15T03:52:17.607Z,41.84
2023-01-15T03:54:53.693Z,41.80
2023-01-15T03:57:35.265Z,41.72
2023-01-15T04:00:13.758Z,41.81
2023-01-15T04:02:46.991Z,41.68
2023-01-15T04:05:18.597Z,41.68
2023-01-15T04:07:51.279Z,41.68
2023-01-15T04:10:21.982Z,41.76
2023-01-15T04:12:52.943Z,41.65
2023-01-15T04:15:23.695Z,41.70
2023-01-15T04:17:54.625Z,41.69
2023-01-15T04:20:25.267Z,41.75
2023-01-15T04:22:56.004Z,41.65
2023-01-15T04:25:26.619Z,41.76
2023-01-15T04:27:57.999Z,41.87
2023-01-15T04:30:28.664Z,41.75
2023-01-15T04:32:59.676Z,41.87
2023-01-15T04:35:30.368Z,41.80
2023-01-15T04:38:01.823Z,41.98
2023-01-15T04:40:50.040Z,41.80
2023-01-15T04:43:38.282Z,41.96
2023-01-15T04:46:09.303Z,42.09
2023-01-15T04:48:41.648Z,41.94
2023-01-15T04:51:12.375Z,42.00
2023-01-15T04:53:43.101Z,41.98
2023-01-15T04:56:13.816Z,41.84
2023-01-15T04:58:44.409Z,41.93
2023-01-15T05:01:17.635Z,41.87
2023-01-15T05:03:48.319Z,41.91
2023-01-15T05:06:19.062Z,41.88
2023-01-15T05:08:49.849Z,41.79
2023-01-15T05:11:20.670Z,41.81
2023-01-15T05:13:51.384Z,41.92
2023-01-15T05:16:24.942Z,42.09
2023-01-15T05:18:58.653Z,42.05
2023-01-15T05:21:28.128Z,41.95
2023-01-15T05:24:00.558Z,42.09
2023-01-15T05:26:33.848Z,42.12
2023-01-15T05:29:04.754Z,42.32
2023-01-15T05:31:36.112Z,42.16
2023-01-15T05:34:06.746Z,42.04
2023-01-15T05:36:38.339Z,42.21
2023-01-15T05:39:09.271Z,42.22
2023-01-15T05:41:53.237Z,42.20
2023-01-15T05:44:27.268Z,42.07
2023-01-15T05:47:00.227Z,42.23
2023-01-15T05:49:32.412Z,42.20
2023-01-15T05:52:04.157Z,42.03
2023-01-15T05:54:36.800Z,42.08
2023-01-15T05:57:07.668Z,42.07
2023-01-15T05:59:38.345Z,42.14
2023-01-15T06:02:09.007Z,42.12
2023-01-15T06:04:42.031Z,42.31
2023-01-15T06:07:12.794Z,42.15
2023-01-15T06:09:43.711Z,42.31
2023-01-15T06:12:14.377Z,42.11
2023-01-15T06:14:45.218Z,42.38
2023-01-15T06:17:16.355Z,42.41
2023-01-15T06:19:46.956Z,42.56
2023-01-15T06:22:18.416Z,42.69
2023-01-15T06:24:49.052Z,42.67
2023-01-15T06:27:19.820Z,42.67
2023-01-15T06:29:50.767Z,42.66
2023-01-15T06:32:21.503Z,42.75
2023-01-15T06:34:52.654Z,42.99
2023-01-15T06:37:23.391Z,42.89
2023-01-15T06:39:54.169Z,42.80
2023-01-15T06:42:42.565Z,42.84
2023-01-15T06:45:32.322Z,43.07
2023-01-15T06:48:03.082Z,42.95
2023-01-15T06:50:33.819Z,43.17
2023-01-15T06:53:04.460Z,43.18
2023-01-15T06:55:35.053Z,42.97
2023-01-15T06:58:07.043Z,43.00
2023-01-15T07:00:37.848Z,43.07
2023-01-15T07:03:08.710Z,43.20
2023-01-15T07:05:40.687Z,43.28
2023-01-15T07:08:11.301Z,43.37
2023-01-15T07:10:41.979Z,43.49
2023-01-15T07:13:13.398Z,43.39
2023-01-15T07:15:43.966Z,43.47
2023-01-15T07:18:14.693Z,43.44
2023-01-15T07:20:45.307Z,43.55
2023-01-15T07:23:16.813Z,43.44
2023-01-15T07:25:47.589Z,43.30
2023-01-15T07:28:18.237Z,43.51
2023-01-15T07:30:49.100Z,43.41
2023-01-15T07:33:19.836Z,43.21
2023-01-15T07:35:50.474Z,43.27
2023-01-15T07:38:21.132Z,43.31
2023-01-15T07:41:11.806Z,43.34
2023-01-15T07:44:00.243Z,43.30
2023-01-15T07:46:49.148Z,43.31
2023-01-15T07:49:37.497Z,43.38
2023-01-15T07:52:08.199Z,43.32
2023-01-15T07:54:38.910Z,43.51
2023-01-15T07:57:10.488Z,43.30
2023-01-15T07:59:41.353Z,43.56
2023-01-15T08:02:12.254Z,43.50
2023-01-15T08:04:43.216Z,43.36
2023-01-15T08:07:14.140Z,43.50
2023-01-15T08:09:44.824Z,43.66
2023-01-15T08:12:32.917Z,43.59
2023-01-15T08:15:16.815Z,43.55
2023-01-15T08:17:49.547Z,43.56
2023-01-15T08:20:22.664Z,43.24
2023-01-15T08:22:53.735Z,43.47
2023-01-15T08:25:26.363Z,43.45
2023-01-15T08:27:57.285Z,43.48
2023-01-15T08:30:28.351Z,43.53
2023-01-15T08:33:03.742Z,43.36
2023-01-15T08:35:35.509Z,43.32
2023-01-15T08:38:08.775Z,43.39
2023-01-15T08:40:58.827Z,43.39
2023-01-15T08:43:31.068Z,43.59
2023-01-15T08:46:03.770Z,43.51
2023-01-15T08:48:35.463Z,43.31
2023-01-15T08:51:09.570Z,43.24
2023-01-15T08:53:40.916Z,43.32
2023-01-15T08:56:19.468Z,43.19
2023-01-15T08:58:50.252Z,43.55
2023-01-15T09:01:21.267Z,43.48
2023-01-15T09:03:52.044Z,43.24
2023-01-15T09:06:22.772Z,42.98
2023-01-15T09:08:53.707Z,43.03
2023-01-15T09:11:24.546Z,43.00
2023-01-15T09:13:55.411Z,42.68
2023-01-15T09:16:27.859Z,42.74
2023-01-15T09:18:58.827Z,42.89
2023-01-15T09:21:29.597Z,43.12
2023-01-15T09:24:00.513Z,43.26
2023-01-15T09:26:34.028Z,43.38
2023-01-15T09:29:06.070Z,43.49
2023-01-15T09:31:36.976Z,43.68
2023-01-15T09:34:07.850Z,43.69
2023-01-15T09:36:40.544Z,43.78
2023-01-15T09:39:12.809Z,43.67
2023-01-15T09:42:08.473Z,43.71
2023-01-15T09:45:16.319Z,43.88
2023-01-15T09:48:06.273Z,43.98
2023-01-15T09:50:48.726Z,44.04
2023-01-15T09:53:37.007Z,44.10
2023-01-15T09:56:21.045Z,44.25
2023-01-15T09:58:53.678Z,44.05
2023-01-15T10:01:30.368Z,44.26
2023-01-15T10:04:07.977Z,44.09
2023-01-15T10:06:44.655Z,44.19
2023-01-15T10:09:21.652Z,44.21
2023-01-15T10:12:16.861Z,44.27
2023-01-15T10:14:56.488Z,44.25
2023-01-15T10:17:29.906Z,44.02
2023-01-15T10:20:01.344Z,43.91
2023-01-15T10:22:46.504Z,43.92
2023-01-15T10:25:25.055Z,43.88
2023-01-15T10:27:59.932Z,44.09
2023-01-15T10:30:39.132Z,43.92
2023-01-15T10:33:30.535Z,43.82
2023-01-15T10:36:09.220Z,44.03
2023-01-15T10:38:50.293Z,43.97
2023-01-15T10:41:32.236Z,43.96
2023-01-15T10:44:11.079Z,43.81
2023-01-15T10:46:45.433Z,43.88
2023-01-15T10:49:18.759Z,43.65
2023-01-15T10:51:52.566Z,43.73
2023-01-15T10:54:29.832Z,43.52
2023-01-15T10:57:10.480Z,43.49
2023-01-15T10:59:47.799Z,43.54
2023-01-15T11:02:29.411Z,43.46
2023-01-15T11:05:00.533Z,43.34
2023-01-15T11:07:39.126Z,43.62
2023-01-15T11:10:14.171Z,43.67
2023-01-15T11:13:11.301Z,43.76
2023-01-15T11:16:04.026Z,43.67
2023-01-15T11:18:55.779Z,43.64
2023-01-15T11:21:27.798Z,43.71
2023-01-15T11:24:00.399Z,43.84
2023-01-15T11:26:34.278Z,43.63
2023-01-15T11:29:17.068Z,43.68
2023-01-15T11:31:47.867Z,43.56
2023-01-15T11:34:24.848Z,43.29
2023-01-15T11:37:06.173Z,43.16
2023-01-15T11:39:37.094Z,42.70
2023-01-15T11:42:35.336Z,42.65
2023-01-15T11:45:34.110Z,42.38
2023-01-15T11:48:31.991Z,42.50
2023-01-15T11:51:09.936Z,42.13
2023-01-15T11:53:47.209Z,42.07
2023-01-15T11:56:20.982Z,41.94
2023-01-15T11:58:51.470Z,41.77
2023-01-15T12:01:29.414Z,41.75
2023-01-15T12:04:02.423Z,41.56
2023-01-15T12:06:36.282Z,41.58
2023-01-15T12:09:09.998Z,41.37
2023-01-15T12:12:04.120Z,41.41
2023-01-15T12:15:11.547Z,41.24
2023-01-15T12:18:11.043Z,41.22
2023-01-15T12:20:56.133Z,41.00
2023-01-15T12:23:45.952Z,40.88
2023-01-15T12:26:24.796Z,40.88
2023-01-15T12:29:04.049Z,41.05
2023-01-15T12:31:40.216Z,40.88
2023-01-15T12:34:20.587Z,40.59
2023-01-15T12:36:54.225Z,40.49
2023-01-15T12:39:31.076Z,40.61
2023-01-15T12:42:23.785Z,40.60
2023-01-15T12:45:05.248Z,40.55
2023-01-15T12:47:41.929Z,40.31
2023-01-15T12:50:36.604Z,40.24
2023-01-15T12:53:14.005Z,40.21
2023-01-15T12:55:49.070Z,39.97
2023-01-15T12:58:32.550Z,40.00
2023-01-15T13:01:12.618Z,40.00
2023-01-15T13:03:54.510Z,40.13
2023-01-15T13:06:28.861Z,40.29
2023-01-15T13:09:06.414Z,40.32
2023-01-15T13:11:37.473Z,40.40
2023-01-15T13:14:16.464Z,40.53
2023-01-15T13:16:58.184Z,40.69
2023-01-15T13:19:43.230Z,40.70
2023-01-15T13:22:20.523Z,40.70
2023-01-15T13:25:12.716Z,40.65
2023-01-15T13:27:55.692Z,40.76
2023-01-15T13:30:42.213Z,40.79
2023-01-15T13:33:25.383Z,40.95
2023-01-15T13:36:02.813Z,41.12
2023-01-15T13:38:40.608Z,41.11
2023-01-15T13:41:11.881Z,41.33
2023-01-15T13:43:44.903Z,41.40
2023-01-15T13:46:22.212Z,41.36
2023-01-15T13:48:54.720Z,41.32
2023-01-15T13:51:37.528Z,41.53
2023-01-15T13:54:16.206Z,41.39
2023-01-15T13:56:47.183Z,41.50
2023-01-15T13:59:43.698Z,41.43
2023-01-15T14:02:26.559Z,41.40
2023-01-15T14:04:58.009Z,41.38
2023-01-15T14:07:37.939Z,41.25
2023-01-15T14:10:22.736Z,41.17
2023-01-15T14:13:03.546Z,41.06
2023-01-15T14:15:42.936Z,41.01
2023-01-15T14:18:37.566Z,41.13
2023-01-15T14:21:21.795Z,41.22
2023-01-15T14:24:13.936Z,41.16
2023-01-15T14:26:53.050Z,41.08
2023-01-15T14:29:47.949Z,41.02
2023-01-15T14:32:25.809Z,41.19
2023-01-15T14:35:00.837Z,41.14
2023-01-15T14:37:36.030Z,41.07
2023-01-15T14:40:19.123Z,40.92
2023-01-15T14:43:06.995Z,41.00
2023-01-15T14:45:40.497Z,40.98
2023-01-15T14:48:22.002Z,40.94
2023-01-15T14:50:54.159Z,41.04
2023-01-15T14:53:36.371Z,40.98
2023-01-15T14:56:14.844Z,41.01
2023-01-15T14:58:55.008Z,41.19
2023-01-15T15:01:43.280Z,41.07
2023-01-15T15:04:22.393Z,40.99
2023-01-15T15:06:56.324Z,41.07
2023-01-15T15:09:35.790Z,41.09
2023-01-15T15:12:27.633Z,41.16
2023-01-15T15:15:07.790Z,41.15
2023-01-15T15:17:45.877Z,41.26
2023-01-15T15:20:38.103Z,41.27
2023-01-15T15:23:16.585Z,41.20
2023-01-15T15:25:56.488Z,41.27
2023-01-15T15:28:28.107Z,41.35
2023-01-15T15:31:01.839Z,41.38
2023-01-15T15:33:38.806Z,41.40
2023-01-15T15:36:11.325Z,41.56
2023-01-15T15:38:52.816Z,41.47
2023-01-15T15:41:41.497Z,41.54
2023-01-15T15:44:35.988Z,41.47
2023-01-15T15:47:37.971Z,41.44
2023-01-15T15:50:19.854Z,41.69
2023-01-15T15:52:53.607Z,41.55
2023-01-15T15:55:27.091Z,41.59
2023-01-15T15:58:01.872Z,41.70
2023-01-15T16:00:37.069Z,41.69
2023-01-15T16:03:17.807Z,41.72
2023-01-15T16:05:58.697Z,41.61
2023-01-15T16:08:32.194Z,41.72
2023-01-15T16:11:06.070Z,41.62
2023-01-15T16:13:41.317Z,41.73
2023-01-15T16:16:14.373Z,41.78
2023-01-15T16:18:47.394Z,41.63
2023-01-15T16:21:24.188Z,41.71
2023-01-15T16:24:03.644Z,41.79
2023-01-15T16:26:39.485Z,41.83
2023-01-15T16:29:20.353Z,41.88
2023-01-15T16:31:52.227Z,41.91
2023-01-15T16:34:26.183Z,41.92
2023-01-15T16:36:57.839Z,42.07
2023-01-15T16:39:31.401Z,42.24
2023-01-15T16:42:02.525Z,42.29
2023-01-15T16:44:48.039Z,42.43
2023-01-15T16:47:27.030Z,42.35
2023-01-15T16:50:26.846Z,42.21
2023-01-15T16:53:00.467Z,42.38
2023-01-15T16:55:40.974Z,42.18
2023-01-15T16:58:37.770Z,42.20
2023-01-15T17:01:35.660Z,42.18
2023-01-15T17:04:18.084Z,42.32
2023-01-15T17:06:58.696Z,42.19
2023-01-15T17:09:32.549Z,42.19
2023-01-15T17:12:08.568Z,42.17
2023-01-15T17:14:41.710Z,42.10
2023-01-15T17:17:29.594Z,42.28
2023-01-15T17:20:00.875Z,42.13
2023-01-15T17:22:34.086Z,42.15
2023-01-15T17:25:22.720Z,42.32
2023-01-15T17:27:54.542Z,42.12
2023-01-15T17:30:31.012Z,42.12
2023-01-15T17:33:03.303Z,42.25
2023-01-15T17:35:35.848Z,42.15
2023-01-15T17:38:11.830Z,42.26
2023-01-15T17:40:43.489Z,42.28
2023-01-15T17:43:16.524Z,42.32
2023-01-15T17:45:47.788Z,42.43
2023-01-15T17:48:19.021Z,42.38
2023-01-15T17:50:56.162Z,42.37
2023-01-15T17:53:27.563Z,42.33
2023-01-15T17:56:16.423Z,42.42
2023-01-15T17:59:05.156Z,42.24
2023-01-15T18:02:00.954Z,42.48
2023-01-15T18:04:54.009Z,42.23
2023-01-15T18:07:29.362Z,42.42
2023-01-15T18:10:01.580Z,42.26
2023-01-15T18:12:32.939Z,42.43
2023-01-15T18:15:04.364Z,42.35
2023-01-15T18:17:35.322Z,42.31
2023-01-15T18:20:08.198Z,42.51
2023-01-15T18:22:39.886Z,42.48
2023-01-15T18:25:14.591Z,42.46
2023-01-15T18:27:47.896Z,42.54
2023-01-15T18:30:21.520Z,42.51
2023-01-15T18:32:55.085Z,42.56
2023-01-15T18:35:26.159Z,42.55
2023-01-15T18:37:57.378Z,42.45
2023-01-15T18:40:30.674Z,42.49
2023-01-15T18:43:19.630Z,42.49
2023-01-15T18:46:08.658Z,42.53
2023-01-15T18:48:41.197Z,42.65
2023-01-15T18:51:15.710Z,42.48
2023-01-15T18:53:49.794Z,42.49
2023-01-15T18:56:39.646Z,42.41
2023-01-15T18:59:12.497Z,42.43
2023-01-15T19:01:44.089Z,42.45
2023-01-15T19:04:15.253Z,42.46
2023-01-15T19:06:47.672Z,42.36
2023-01-15T19:09:21.473Z,42.44
2023-01-15T19:11:53.070Z,42.40
2023-01-15T19:14:42.245Z,42.41
2023-01-15T19:17:34.570Z,42.24
2023-01-15T19:20:07.138Z,42.19
2023-01-15T19:22:58.160Z,42.21
2023-01-15T19:25:30.546Z,42.38
2023-01-15T19:28:01.852Z,42.13
2023-01-15T19:30:33.908Z,42.19
2023-01-15T19:33:20.536Z,42.18
2023-01-15T19:36:09.169Z,42.17
2023-01-15T19:38:41.221Z,42.06
2023-01-15T19:41:29.714Z,42.16
2023-01-15T19:44:18.673Z,42.16
2023-01-15T19:47:07.051Z,42.20
2023-01-15T19:49:56.864Z,42.07
2023-01-15T19:52:37.050Z,42.32
2023-01-15T19:55:11.765Z,42.14
2023-01-15T19:57:44.161Z,42.07
2023-01-15T20:00:18.242Z,41.98
2023-01-15T20:02:49.825Z,42.05
2023-01-15T20:05:22.818Z,41.95
2023-01-15T20:07:54.393Z,41.80
2023-01-15T20:10:28.283Z,41.85
2023-01-15T20:13:18.363Z,41.86
2023-01-15T20:15:49.384Z,41.85
2023-01-15T20:18:22.963Z,41.68
2023-01-15T20:20:55.513Z,41.93
2023-01-15T20:23:28.933Z,41.79
2023-01-15T20:26:06.447Z,42.09
2023-01-15T20:28:37.511Z,41.75
2023-01-15T20:31:14.810Z,41.91
2023-01-15T20:33:45.830Z,42.01
2023-01-15T20:36:17.217Z,42.28
2023-01-15T20:38:48.192Z,42.13
2023-01-15T20:41:45.376Z,42.11
2023-01-15T20:44:34.217Z,42.25
2023-01-15T20:47:26.031Z,42.38
2023-01-15T20:49:55.280Z,42.47
2023-01-15T20:52:26.189Z,42.43
2023-01-15T20:54:57.164Z,42.35
2023-01-15T20:57:28.140Z,42.15
2023-01-15T20:59:59.594Z,42.33
2023-01-15T21:02:30.465Z,42.42
2023-01-15T21:05:01.554Z,42.55
2023-01-15T21:07:32.684Z,42.55
2023-01-15T21:10:04.413Z,42.31
2023-01-15T21:12:35.482Z,42.56
2023-01-15T21:15:07.913Z,42.31
2023-01-15T21:17:40.960Z,42.52
2023-01-15T21:20:14.818Z,42.46
2023-01-15T21:22:47.504Z,42.41
2023-01-15T21:25:18.751Z,42.23
2023-01-15T21:27:49.557Z,42.27
2023-01-15T21:30:21.888Z,42.17
2023-01-15T21:32:52.997Z,42.21
2023-01-15T21:35:23.997Z,41.78
2023-01-15T21:37:55.049Z,41.83
2023-01-15T21:40:26.114Z,42.02
2023-01-15T21:43:14.721Z,42.18
2023-01-15T21:45:45.748Z,42.03
2023-01-15T21:48:16.705Z,41.90
2023-01-15T21:50:47.478Z,42.16
2023-01-15T21:53:18.429Z,41.88
2023-01-15T21:55:53.226Z,42.13
2023-01-15T21:58:24.123Z,41.94
2023-01-15T22:00:55.023Z,42.21
2023-01-15T22:03:25.946Z,42.15
2023-01-15T22:05:56.785Z,42.27
2023-01-15T22:08:27.631Z,42.16
2023-01-15T22:11:05.660Z,42.37
2023-01-15T22:13:37.444Z,42.52
2023-01-15T22:16:09.121Z,42.36
2023-01-15T22:18:41.064Z,42.33
2023-01-15T22:21:15.443Z,42.42
2023-01-15T22:23:49.033Z,42.48
2023-01-15T22:26:24.068Z,42.51
2023-01-15T22:28:54.932Z,42.55
2023-01-15T22:31:25.658Z,42.59
2023-01-15T22:33:59.250Z,42.71
2023-01-15T22:36:28.475Z,42.57
2023-01-15T22:38:59.321Z,42.54
2023-01-15T22:41:46.919Z,42.62
2023-01-15T22:44:17.876Z,42.79
2023-01-15T22:46:50.480Z,42.65
2023-01-15T22:49:21.502Z,42.61
2023-01-15T22:51:52.356Z,42.85
2023-01-15T22:54:23.854Z,42.65
2023-01-15T22:56:54.491Z,42.90
2023-01-15T22:59:25.302Z,42.87
2023-01-15T23:01:56.227Z,42.80
2023-01-15T23:04:27.705Z,42.88
2023-01-15T23:06:58.467Z,42.84
2023-01-15T23:09:29.405Z,42.87
2023-01-15T23:12:00.160Z,42.93
2023-01-15T23:14:30.920Z,42.98
2023-01-15T23:17:01.979Z,43.01
2023-01-15T23:19:33.886Z,42.90
2023-01-15T23:22:04.665Z,42.99
2023-01-15T23:24:35.610Z,43.17
2023-01-15T23:27:06.722Z,43.01
2023-01-15T23:29:37.456Z,42.97
2023-01-15T23:32:08.628Z,43.02
2023-01-15T23:34:39.686Z,42.94
2023-01-15T23:37:10.344Z,43.14
2023-01-15T23:39:41.165Z,43.04
2023-01-15T23:42:30.423Z,43.07
2023-01-15T23:45:18.714Z,43.15
2023-01-15T23:47:49.640Z,43.13
2023-01-15T23:50:20.775Z,43.23
2023-01-15T23:52:51.485Z,43.24
2023-01-15T23:55:22.360Z,43.24
2023-01-15T23:57:53.022Z,43.22
